This is the latest recevied weather packets stored in our database for station/object OE-11361. If no packets are shown the sender has not sent any weather packets the latest 10 day(s).
| Time | Temp. | Humidity | Pressure | Rain* | Wind** | Luminosity | Snow |
|---|---|---|---|---|---|---|---|
| 1787943303 | 22.22° C | 69% | 1013.8 hPa | 0 mm | - | 0 W/m² | - |
| 1787942477 | 22.22° C | 69% | 1013.5 hPa | 0 mm | - | 0 W/m² | - |
| 1787942102 | 22.22° C | 68% | 1013 hPa | 0 mm | - | 0 W/m² | - |
| 1787940677 | 22.22° C | 66% | 1012.6 hPa | 0 mm | - | 0 W/m² | - |
| 1787940303 | 22.22° C | 67% | 1012.7 hPa | 0 mm | - | 0 W/m² | - |
| 1787939703 | 22.22° C | 67% | 1013 hPa | 0 mm | - | 0 W/m² | - |
| 1787938877 | 22.22° C | 68% | 1013.4 hPa | 0 mm | - | 0 W/m² | - |
| 1787938504 | 22.22° C | 68% | 1013.4 hPa | 0 mm | - | 7 W/m² | - |
| 1787937904 | 22.78° C | 67% | 1013.5 hPa | 0 mm | - | 14 W/m² | - |
| 1787937077 | 22.78° C | 67% | 1013.3 hPa | 0 mm | - | 14 W/m² | - |
| 1787936703 | 22.78° C | 67% | 1013 hPa | 0 mm | - | 7 W/m² | - |
| 1787936103 | 23.89° C | 64% | 1013.1 hPa | 0 mm | - | 7 W/m² | - |
| 1787935277 | 23.89° C | 63% | 1013.2 hPa | 0 mm | - | 7 W/m² | - |
| 1787934904 | 24.44° C | 62% | 1012.7 hPa | 0 mm | - | 14 W/m² | - |
| 1787934304 | 25° C | 65% | 1012.5 hPa | 0 mm | - | 41 W/m² | - |
| 1787933477 | 25° C | 64% | 1012.3 hPa | 0 mm | - | 41 W/m² | - |
| 1787933104 | 25.56° C | 64% | 1012.8 hPa | 0 mm | - | 21 W/m² | - |
| 1787932504 | 25.56° C | 64% | 1012.7 hPa | 0 mm | - | 14 W/m² | - |
| 1787931677 | 25.56° C | 65% | 1012.3 hPa | 0 mm | - | 7 W/m² | - |
| 1787931304 | 25.56° C | 64% | 1012.1 hPa | 0 mm | - | 14 W/m² | - |
| 1787930704 | 25.56° C | 64% | 1011.8 hPa | 0 mm | - | 34 W/m² | - |
| 1787929877 | 26.67° C | 61% | 1011.2 hPa | 0 mm | - | 131 W/m² | - |
| 1787929503 | 27.78° C | 59% | 1010.6 hPa | 0 mm | - | 476 W/m² | - |
| 1787928903 | 27.22° C | 62% | 1010.4 hPa | 0 mm | - | 241 W/m² | - |
| 1787928077 | 27.22° C | 61% | 1010.1 hPa | 0 mm | - | 159 W/m² | - |
* Rain latest hour (hover to see other rain measurements)
** Current wind speed in m/s (hover to see current wind gust speed)